sensor_id;sensor_type;location;lat;lon;timestamp;P1;durP1;ratioP1;P2;durP2;ratioP2
18176;SDS011;9213;50.858;3.964;2023-05-02T00:02:03;34.90;;;18.77;;
18176;SDS011;9213;50.858;3.964;2023-05-02T00:04:30;34.20;;;18.60;;
18176;SDS011;9213;50.858;3.964;2023-05-02T00:06:57;40.73;;;20.73;;
18176;SDS011;9213;50.858;3.964;2023-05-02T00:09:24;34.23;;;19.63;;
18176;SDS011;9213;50.858;3.964;2023-05-02T00:11:51;34.10;;;18.93;;
18176;SDS011;9213;50.858;3.964;2023-05-02T00:14:19;35.33;;;19.73;;
18176;SDS011;9213;50.858;3.964;2023-05-02T00:16:46;40.10;;;20.80;;
18176;SDS011;9213;50.858;3.964;2023-05-02T00:19:13;33.40;;;19.73;;
18176;SDS011;9213;50.858;3.964;2023-05-02T00:21:40;35.80;;;20.27;;
18176;SDS011;9213;50.858;3.964;2023-05-02T00:24:07;41.73;;;21.20;;
18176;SDS011;9213;50.858;3.964;2023-05-02T00:26:33;42.77;;;20.87;;
18176;SDS011;9213;50.858;3.964;2023-05-02T00:29:00;36.83;;;21.13;;
18176;SDS011;9213;50.858;3.964;2023-05-02T00:31:28;40.80;;;21.10;;
18176;SDS011;9213;50.858;3.964;2023-05-02T00:33:55;38.60;;;21.27;;
18176;SDS011;9213;50.858;3.964;2023-05-02T00:36:22;45.43;;;22.57;;
18176;SDS011;9213;50.858;3.964;2023-05-02T00:38:50;41.73;;;22.17;;
18176;SDS011;9213;50.858;3.964;2023-05-02T00:41:17;43.47;;;23.43;;
18176;SDS011;9213;50.858;3.964;2023-05-02T00:43:44;42.10;;;22.50;;
18176;SDS011;9213;50.858;3.964;2023-05-02T00:46:11;41.27;;;23.30;;
18176;SDS011;9213;50.858;3.964;2023-05-02T00:48:40;44.40;;;24.63;;
18176;SDS011;9213;50.858;3.964;2023-05-02T00:51:09;43.03;;;23.10;;
18176;SDS011;9213;50.858;3.964;2023-05-02T00:53:37;47.03;;;24.03;;
18176;SDS011;9213;50.858;3.964;2023-05-02T00:56:05;38.03;;;23.93;;
18176;SDS011;9213;50.858;3.964;2023-05-02T00:58:33;44.67;;;24.63;;
18176;SDS011;9213;50.858;3.964;2023-05-02T01:01:03;50.60;;;25.70;;
18176;SDS011;9213;50.858;3.964;2023-05-02T01:03:59;48.57;;;23.93;;
18176;SDS011;9213;50.858;3.964;2023-05-02T01:06:38;43.27;;;24.47;;
18176;SDS011;9213;50.858;3.964;2023-05-02T01:09:21;48.60;;;24.67;;
18176;SDS011;9213;50.858;3.964;2023-05-02T01:11:59;44.60;;;24.97;;
18176;SDS011;9213;50.858;3.964;2023-05-02T01:14:29;48.27;;;25.50;;
18176;SDS011;9213;50.858;3.964;2023-05-02T01:17:00;48.87;;;25.00;;
18176;SDS011;9213;50.858;3.964;2023-05-02T01:19:33;50.77;;;26.70;;
18176;SDS011;9213;50.858;3.964;2023-05-02T01:22:02;50.27;;;25.73;;
18176;SDS011;9213;50.858;3.964;2023-05-02T01:24:34;50.37;;;26.13;;
18176;SDS011;9213;50.858;3.964;2023-05-02T01:27:10;49.20;;;25.00;;
18176;SDS011;9213;50.858;3.964;2023-05-02T01:29:44;51.17;;;25.33;;
18176;SDS011;9213;50.858;3.964;2023-05-02T01:32:15;46.23;;;24.83;;
18176;SDS011;9213;50.858;3.964;2023-05-02T01:34:43;50.83;;;26.33;;
18176;SDS011;9213;50.858;3.964;2023-05-02T01:37:13;54.17;;;25.87;;
18176;SDS011;9213;50.858;3.964;2023-05-02T01:39:43;43.30;;;25.53;;
18176;SDS011;9213;50.858;3.964;2023-05-02T01:42:11;50.97;;;26.87;;
18176;SDS011;9213;50.858;3.964;2023-05-02T01:44:40;47.77;;;25.47;;
18176;SDS011;9213;50.858;3.964;2023-05-02T01:47:10;52.73;;;26.50;;
18176;SDS011;9213;50.858;3.964;2023-05-02T01:49:38;50.47;;;26.70;;
18176;SDS011;9213;50.858;3.964;2023-05-02T01:52:07;54.07;;;27.37;;
18176;SDS011;9213;50.858;3.964;2023-05-02T01:54:37;47.30;;;26.13;;
18176;SDS011;9213;50.858;3.964;2023-05-02T01:57:06;54.33;;;27.80;;
18176;SDS011;9213;50.858;3.964;2023-05-02T01:59:35;51.40;;;28.07;;
18176;SDS011;9213;50.858;3.964;2023-05-02T02:02:03;57.60;;;28.57;;
18176;SDS011;9213;50.858;3.964;2023-05-02T02:04:32;50.40;;;28.07;;
18176;SDS011;9213;50.858;3.964;2023-05-02T02:07:02;53.13;;;29.33;;
18176;SDS011;9213;50.858;3.964;2023-05-02T02:09:32;57.83;;;30.40;;
18176;SDS011;9213;50.858;3.964;2023-05-02T02:12:01;57.00;;;28.70;;
18176;SDS011;9213;50.858;3.964;2023-05-02T02:14:32;56.93;;;30.10;;
18176;SDS011;9213;50.858;3.964;2023-05-02T02:17:00;55.50;;;29.00;;
18176;SDS011;9213;50.858;3.964;2023-05-02T02:19:31;57.17;;;30.63;;
18176;SDS011;9213;50.858;3.964;2023-05-02T02:21:59;61.23;;;30.20;;
18176;SDS011;9213;50.858;3.964;2023-05-02T02:24:30;55.60;;;30.20;;
18176;SDS011;9213;50.858;3.964;2023-05-02T02:27:00;55.23;;;30.17;;
18176;SDS011;9213;50.858;3.964;2023-05-02T02:29:27;60.03;;;31.30;;
18176;SDS011;9213;50.858;3.964;2023-05-02T02:31:54;59.40;;;31.40;;
18176;SDS011;9213;50.858;3.964;2023-05-02T02:34:21;61.70;;;31.73;;
18176;SDS011;9213;50.858;3.964;2023-05-02T02:36:52;55.87;;;31.87;;
18176;SDS011;9213;50.858;3.964;2023-05-02T02:39:28;58.13;;;30.33;;
18176;SDS011;9213;50.858;3.964;2023-05-02T02:42:07;55.63;;;30.20;;
18176;SDS011;9213;50.858;3.964;2023-05-02T02:44:40;66.87;;;31.50;;
18176;SDS011;9213;50.858;3.964;2023-05-02T02:47:18;52.83;;;30.60;;
18176;SDS011;9213;50.858;3.964;2023-05-02T02:49:54;58.13;;;29.37;;
18176;SDS011;9213;50.858;3.964;2023-05-02T02:52:32;56.50;;;30.77;;
18176;SDS011;9213;50.858;3.964;2023-05-02T02:55:06;65.70;;;32.40;;
18176;SDS011;9213;50.858;3.964;2023-05-02T02:57:38;61.30;;;31.60;;
18176;SDS011;9213;50.858;3.964;2023-05-02T03:00:12;67.97;;;33.87;;
18176;SDS011;9213;50.858;3.964;2023-05-02T03:02:44;78.73;;;34.83;;
18176;SDS011;9213;50.858;3.964;2023-05-02T03:05:12;89.87;;;37.43;;
18176;SDS011;9213;50.858;3.964;2023-05-02T03:07:41;84.43;;;37.97;;
18176;SDS011;9213;50.858;3.964;2023-05-02T03:10:09;88.60;;;40.50;;
18176;SDS011;9213;50.858;3.964;2023-05-02T03:12:36;79.77;;;38.60;;
18176;SDS011;9213;50.858;3.964;2023-05-02T03:15:07;87.67;;;39.30;;
18176;SDS011;9213;50.858;3.964;2023-05-02T03:17:48;83.30;;;38.17;;
18176;SDS011;9213;50.858;3.964;2023-05-02T03:20:15;89.53;;;39.27;;
18176;SDS011;9213;50.858;3.964;2023-05-02T03:22:43;92.87;;;42.17;;
18176;SDS011;9213;50.858;3.964;2023-05-02T03:25:10;87.80;;;39.67;;
18176;SDS011;9213;50.858;3.964;2023-05-02T03:27:37;93.80;;;40.33;;
18176;SDS011;9213;50.858;3.964;2023-05-02T03:30:04;90.83;;;40.57;;
18176;SDS011;9213;50.858;3.964;2023-05-02T03:32:32;93.07;;;40.60;;
18176;SDS011;9213;50.858;3.964;2023-05-02T03:34:59;95.70;;;41.70;;
18176;SDS011;9213;50.858;3.964;2023-05-02T03:37:26;101.00;;;43.07;;
18176;SDS011;9213;50.858;3.964;2023-05-02T03:39:55;95.93;;;42.83;;
18176;SDS011;9213;50.858;3.964;2023-05-02T03:42:22;98.60;;;43.23;;
18176;SDS011;9213;50.858;3.964;2023-05-02T03:44:50;91.00;;;42.23;;
18176;SDS011;9213;50.858;3.964;2023-05-02T03:47:18;89.20;;;40.47;;
18176;SDS011;9213;50.858;3.964;2023-05-02T03:49:45;87.80;;;40.00;;
18176;SDS011;9213;50.858;3.964;2023-05-02T03:52:12;86.90;;;39.53;;
18176;SDS011;9213;50.858;3.964;2023-05-02T03:54:39;89.93;;;39.57;;
18176;SDS011;9213;50.858;3.964;2023-05-02T03:57:08;80.33;;;38.27;;
18176;SDS011;9213;50.858;3.964;2023-05-02T03:59:36;80.13;;;37.07;;
18176;SDS011;9213;50.858;3.964;2023-05-02T04:02:05;81.17;;;38.07;;
18176;SDS011;9213;50.858;3.964;2023-05-02T04:04:32;76.57;;;36.20;;
18176;SDS011;9213;50.858;3.964;2023-05-02T04:07:00;85.37;;;35.87;;
18176;SDS011;9213;50.858;3.964;2023-05-02T04:09:27;87.47;;;38.77;;
18176;SDS011;9213;50.858;3.964;2023-05-02T04:11:54;77.67;;;34.73;;
18176;SDS011;9213;50.858;3.964;2023-05-02T04:14:22;86.97;;;37.80;;
18176;SDS011;9213;50.858;3.964;2023-05-02T04:16:49;75.70;;;35.37;;
18176;SDS011;9213;50.858;3.964;2023-05-02T04:19:16;78.63;;;35.10;;
18176;SDS011;9213;50.858;3.964;2023-05-02T04:21:44;73.07;;;33.50;;
18176;SDS011;9213;50.858;3.964;2023-05-02T04:24:12;77.97;;;34.13;;
18176;SDS011;9213;50.858;3.964;2023-05-02T04:26:39;76.53;;;34.63;;
18176;SDS011;9213;50.858;3.964;2023-05-02T04:29:06;78.60;;;34.17;;
18176;SDS011;9213;50.858;3.964;2023-05-02T04:31:34;71.23;;;32.63;;
18176;SDS011;9213;50.858;3.964;2023-05-02T04:34:01;69.67;;;32.67;;
18176;SDS011;9213;50.858;3.964;2023-05-02T04:36:29;70.83;;;30.67;;
18176;SDS011;9213;50.858;3.964;2023-05-02T04:38:56;63.23;;;29.17;;
18176;SDS011;9213;50.858;3.964;2023-05-02T04:41:23;57.00;;;26.30;;
18176;SDS011;9213;50.858;3.964;2023-05-02T04:43:50;52.53;;;26.53;;
18176;SDS011;9213;50.858;3.964;2023-05-02T04:46:17;51.90;;;27.20;;
18176;SDS011;9213;50.858;3.964;2023-05-02T04:48:45;45.70;;;25.50;;
18176;SDS011;9213;50.858;3.964;2023-05-02T04:51:12;49.63;;;23.80;;
18176;SDS011;9213;50.858;3.964;2023-05-02T04:53:39;45.73;;;23.57;;
18176;SDS011;9213;50.858;3.964;2023-05-02T04:56:06;42.83;;;21.73;;
18176;SDS011;9213;50.858;3.964;2023-05-02T04:58:33;43.23;;;22.77;;
18176;SDS011;9213;50.858;3.964;2023-05-02T05:01:00;38.60;;;21.67;;
18176;SDS011;9213;50.858;3.964;2023-05-02T05:03:27;36.73;;;20.77;;
18176;SDS011;9213;50.858;3.964;2023-05-02T05:05:56;35.97;;;20.47;;
18176;SDS011;9213;50.858;3.964;2023-05-02T05:08:23;33.77;;;19.23;;
18176;SDS011;9213;50.858;3.964;2023-05-02T05:10:50;35.50;;;19.80;;
18176;SDS011;9213;50.858;3.964;2023-05-02T05:13:17;32.50;;;17.00;;
18176;SDS011;9213;50.858;3.964;2023-05-02T05:15:44;32.27;;;18.03;;
18176;SDS011;9213;50.858;3.964;2023-05-02T05:18:12;28.20;;;17.47;;
18176;SDS011;9213;50.858;3.964;2023-05-02T05:20:39;32.90;;;17.73;;
18176;SDS011;9213;50.858;3.964;2023-05-02T05:23:07;33.03;;;18.57;;
18176;SDS011;9213;50.858;3.964;2023-05-02T05:25:34;30.40;;;17.13;;
18176;SDS011;9213;50.858;3.964;2023-05-02T05:28:01;28.63;;;15.90;;
18176;SDS011;9213;50.858;3.964;2023-05-02T05:30:28;29.13;;;16.23;;
18176;SDS011;9213;50.858;3.964;2023-05-02T05:32:55;30.27;;;16.40;;
18176;SDS011;9213;50.858;3.964;2023-05-02T05:35:23;26.40;;;15.17;;
18176;SDS011;9213;50.858;3.964;2023-05-02T05:37:50;24.13;;;15.80;;
18176;SDS011;9213;50.858;3.964;2023-05-02T05:40:18;23.37;;;14.87;;
18176;SDS011;9213;50.858;3.964;2023-05-02T05:42:46;19.67;;;12.97;;
18176;SDS011;9213;50.858;3.964;2023-05-02T05:45:13;18.37;;;12.27;;
18176;SDS011;9213;50.858;3.964;2023-05-02T05:47:43;20.63;;;12.27;;
18176;SDS011;9213;50.858;3.964;2023-05-02T05:50:10;20.33;;;11.73;;
18176;SDS011;9213;50.858;3.964;2023-05-02T05:52:37;18.73;;;11.90;;
18176;SDS011;9213;50.858;3.964;2023-05-02T05:55:04;21.10;;;11.97;;
18176;SDS011;9213;50.858;3.964;2023-05-02T05:57:33;18.70;;;11.87;;
18176;SDS011;9213;50.858;3.964;2023-05-02T06:00:00;17.83;;;11.03;;
18176;SDS011;9213;50.858;3.964;2023-05-02T06:02:27;17.67;;;10.70;;
18176;SDS011;9213;50.858;3.964;2023-05-02T06:04:54;15.27;;;10.00;;
18176;SDS011;9213;50.858;3.964;2023-05-02T06:07:21;14.60;;;9.03;;
18176;SDS011;9213;50.858;3.964;2023-05-02T06:09:48;18.03;;;8.43;;
18176;SDS011;9213;50.858;3.964;2023-05-02T06:12:15;12.20;;;7.50;;
18176;SDS011;9213;50.858;3.964;2023-05-02T06:14:44;12.63;;;7.37;;
18176;SDS011;9213;50.858;3.964;2023-05-02T06:17:10;10.90;;;6.37;;
18176;SDS011;9213;50.858;3.964;2023-05-02T06:19:37;12.93;;;6.70;;
18176;SDS011;9213;50.858;3.964;2023-05-02T06:22:04;12.73;;;6.17;;
18176;SDS011;9213;50.858;3.964;2023-05-02T06:24:31;10.73;;;6.50;;
18176;SDS011;9213;50.858;3.964;2023-05-02T06:26:58;7.97;;;5.87;;
18176;SDS011;9213;50.858;3.964;2023-05-02T06:29:26;10.50;;;6.20;;
18176;SDS011;9213;50.858;3.964;2023-05-02T06:31:55;8.47;;;5.63;;
18176;SDS011;9213;50.858;3.964;2023-05-02T06:34:22;12.17;;;5.70;;
18176;SDS011;9213;50.858;3.964;2023-05-02T06:36:52;11.37;;;5.10;;
18176;SDS011;9213;50.858;3.964;2023-05-02T06:39:20;8.30;;;5.70;;
18176;SDS011;9213;50.858;3.964;2023-05-02T06:41:47;7.83;;;5.30;;
18176;SDS011;9213;50.858;3.964;2023-05-02T06:44:14;10.70;;;5.97;;
18176;SDS011;9213;50.858;3.964;2023-05-02T06:46:41;5.83;;;5.00;;
18176;SDS011;9213;50.858;3.964;2023-05-02T06:49:09;11.10;;;5.70;;
18176;SDS011;9213;50.858;3.964;2023-05-02T06:51:36;9.37;;;5.93;;
18176;SDS011;9213;50.858;3.964;2023-05-02T06:54:03;10.23;;;6.53;;
18176;SDS011;9213;50.858;3.964;2023-05-02T06:56:30;12.07;;;6.87;;
18176;SDS011;9213;50.858;3.964;2023-05-02T06:58:57;14.43;;;6.93;;
18176;SDS011;9213;50.858;3.964;2023-05-02T07:01:24;13.50;;;6.87;;
18176;SDS011;9213;50.858;3.964;2023-05-02T07:03:51;10.73;;;6.83;;
18176;SDS011;9213;50.858;3.964;2023-05-02T07:06:20;9.73;;;6.77;;
18176;SDS011;9213;50.858;3.964;2023-05-02T07:08:47;11.23;;;7.03;;
18176;SDS011;9213;50.858;3.964;2023-05-02T07:11:14;12.73;;;6.83;;
18176;SDS011;9213;50.858;3.964;2023-05-02T07:13:41;8.53;;;5.93;;
18176;SDS011;9213;50.858;3.964;2023-05-02T07:16:08;9.57;;;6.60;;
18176;SDS011;9213;50.858;3.964;2023-05-02T07:18:35;12.90;;;8.03;;
18176;SDS011;9213;50.858;3.964;2023-05-02T07:21:02;7.17;;;6.17;;
18176;SDS011;9213;50.858;3.964;2023-05-02T07:23:31;9.77;;;6.30;;
18176;SDS011;9213;50.858;3.964;2023-05-02T07:25:58;10.53;;;5.83;;
18176;SDS011;9213;50.858;3.964;2023-05-02T07:28:25;10.10;;;5.87;;
18176;SDS011;9213;50.858;3.964;2023-05-02T07:30:51;8.23;;;5.03;;
18176;SDS011;9213;50.858;3.964;2023-05-02T07:33:19;9.03;;;6.43;;
18176;SDS011;9213;50.858;3.964;2023-05-02T07:35:46;7.00;;;4.37;;
18176;SDS011;9213;50.858;3.964;2023-05-02T07:38:13;9.37;;;4.63;;
18176;SDS011;9213;50.858;3.964;2023-05-02T07:40:41;6.37;;;4.70;;
18176;SDS011;9213;50.858;3.964;2023-05-02T07:43:10;11.13;;;5.50;;
18176;SDS011;9213;50.858;3.964;2023-05-02T07:45:37;9.23;;;4.80;;
18176;SDS011;9213;50.858;3.964;2023-05-02T07:48:04;8.97;;;5.53;;
18176;SDS011;9213;50.858;3.964;2023-05-02T07:50:31;8.40;;;5.40;;
18176;SDS011;9213;50.858;3.964;2023-05-02T07:52:58;10.43;;;6.17;;
18176;SDS011;9213;50.858;3.964;2023-05-02T07:55:25;6.70;;;5.60;;
18176;SDS011;9213;50.858;3.964;2023-05-02T07:57:53;7.63;;;5.37;;
18176;SDS011;9213;50.858;3.964;2023-05-02T08:00:20;9.40;;;5.67;;
18176;SDS011;9213;50.858;3.964;2023-05-02T08:02:47;7.23;;;5.57;;
18176;SDS011;9213;50.858;3.964;2023-05-02T08:05:14;8.30;;;5.13;;
18176;SDS011;9213;50.858;3.964;2023-05-02T08:07:41;6.30;;;4.67;;
18176;SDS011;9213;50.858;3.964;2023-05-02T08:10:08;6.17;;;4.60;;
18176;SDS011;9213;50.858;3.964;2023-05-02T08:12:39;4.93;;;4.07;;
18176;SDS011;9213;50.858;3.964;2023-05-02T08:15:09;7.43;;;4.10;;
18176;SDS011;9213;50.858;3.964;2023-05-02T08:17:37;5.77;;;4.20;;
18176;SDS011;9213;50.858;3.964;2023-05-02T08:20:04;6.43;;;3.83;;
18176;SDS011;9213;50.858;3.964;2023-05-02T08:22:32;5.03;;;3.50;;
18176;SDS011;9213;50.858;3.964;2023-05-02T08:24:59;5.73;;;3.43;;
18176;SDS011;9213;50.858;3.964;2023-05-02T08:27:26;6.83;;;3.37;;
18176;SDS011;9213;50.858;3.964;2023-05-02T08:29:53;8.13;;;3.57;;
18176;SDS011;9213;50.858;3.964;2023-05-02T08:32:21;5.83;;;3.47;;
18176;SDS011;9213;50.858;3.964;2023-05-02T08:34:48;7.10;;;3.77;;
18176;SDS011;9213;50.858;3.964;2023-05-02T08:37:15;9.37;;;3.60;;
18176;SDS011;9213;50.858;3.964;2023-05-02T08:39:42;5.60;;;3.15;;
18176;SDS011;9213;50.858;3.964;2023-05-02T08:42:09;7.82;;;3.42;;
18176;SDS011;9213;50.858;3.964;2023-05-02T08:44:36;6.82;;;3.63;;
18176;SDS011;9213;50.858;3.964;2023-05-02T08:47:03;4.32;;;3.15;;
18176;SDS011;9213;50.858;3.964;2023-05-02T08:49:32;6.17;;;3.70;;
18176;SDS011;9213;50.858;3.964;2023-05-02T08:52:01;6.82;;;3.35;;
18176;SDS011;9213;50.858;3.964;2023-05-02T08:54:30;4.72;;;3.30;;
18176;SDS011;9213;50.858;3.964;2023-05-02T08:56:58;5.45;;;3.67;;
18176;SDS011;9213;50.858;3.964;2023-05-02T08:59:27;6.55;;;3.60;;
18176;SDS011;9213;50.858;3.964;2023-05-02T09:02:00;9.10;;;4.33;;
18176;SDS011;9213;50.858;3.964;2023-05-02T09:04:39;7.78;;;4.65;;
18176;SDS011;9213;50.858;3.964;2023-05-02T09:07:07;9.68;;;3.45;;
18176;SDS011;9213;50.858;3.964;2023-05-02T09:09:34;7.90;;;3.63;;
18176;SDS011;9213;50.858;3.964;2023-05-02T09:12:02;5.43;;;3.67;;
18176;SDS011;9213;50.858;3.964;2023-05-02T09:14:29;5.93;;;3.80;;
18176;SDS011;9213;50.858;3.964;2023-05-02T09:16:57;5.55;;;3.40;;
18176;SDS011;9213;50.858;3.964;2023-05-02T09:19:25;6.82;;;3.67;;
18176;SDS011;9213;50.858;3.964;2023-05-02T09:21:53;6.60;;;3.58;;
18176;SDS011;9213;50.858;3.964;2023-05-02T09:24:25;5.28;;;3.55;;
18176;SDS011;9213;50.858;3.964;2023-05-02T09:26:56;8.63;;;3.70;;
18176;SDS011;9213;50.858;3.964;2023-05-02T09:29:25;8.40;;;3.67;;
18176;SDS011;9213;50.858;3.964;2023-05-02T09:31:54;6.10;;;3.70;;
18176;SDS011;9213;50.858;3.964;2023-05-02T09:34:21;5.85;;;3.70;;
18176;SDS011;9213;50.858;3.964;2023-05-02T09:36:49;5.35;;;3.50;;
18176;SDS011;9213;50.858;3.964;2023-05-02T09:39:20;7.35;;;3.60;;
18176;SDS011;9213;50.858;3.964;2023-05-02T09:41:48;6.70;;;3.65;;
18176;SDS011;9213;50.858;3.964;2023-05-02T09:44:16;5.53;;;3.80;;
18176;SDS011;9213;50.858;3.964;2023-05-02T09:46:46;7.18;;;3.60;;
18176;SDS011;9213;50.858;3.964;2023-05-02T09:49:14;7.40;;;3.35;;
18176;SDS011;9213;50.858;3.964;2023-05-02T09:51:43;5.38;;;3.47;;
18176;SDS011;9213;50.858;3.964;2023-05-02T09:54:10;8.93;;;3.63;;
18176;SDS011;9213;50.858;3.964;2023-05-02T09:56:54;5.63;;;3.33;;
18176;SDS011;9213;50.858;3.964;2023-05-02T09:59:22;8.07;;;3.47;;
18176;SDS011;9213;50.858;3.964;2023-05-02T10:01:53;5.90;;;3.40;;
18176;SDS011;9213;50.858;3.964;2023-05-02T10:04:22;7.65;;;3.38;;
18176;SDS011;9213;50.858;3.964;2023-05-02T10:06:50;5.75;;;3.20;;
18176;SDS011;9213;50.858;3.964;2023-05-02T10:09:18;8.63;;;3.40;;
18176;SDS011;9213;50.858;3.964;2023-05-02T10:11:46;9.57;;;3.17;;
18176;SDS011;9213;50.858;3.964;2023-05-02T10:14:18;7.55;;;3.10;;
18176;SDS011;9213;50.858;3.964;2023-05-02T10:16:49;4.22;;;3.20;;
18176;SDS011;9213;50.858;3.964;2023-05-02T10:19:22;5.80;;;3.10;;
18176;SDS011;9213;50.858;3.964;2023-05-02T10:21:52;5.25;;;3.20;;
18176;SDS011;9213;50.858;3.964;2023-05-02T10:24:21;8.20;;;2.90;;
18176;SDS011;9213;50.858;3.964;2023-05-02T10:26:49;5.97;;;3.33;;
18176;SDS011;9213;50.858;3.964;2023-05-02T10:29:19;5.20;;;2.80;;
18176;SDS011;9213;50.858;3.964;2023-05-02T10:31:46;6.55;;;3.10;;
18176;SDS011;9213;50.858;3.964;2023-05-02T10:34:15;7.65;;;2.95;;
18176;SDS011;9213;50.858;3.964;2023-05-02T10:36:44;7.38;;;3.03;;
18176;SDS011;9213;50.858;3.964;2023-05-02T10:39:11;7.88;;;3.03;;
18176;SDS011;9213;50.858;3.964;2023-05-02T10:41:39;6.90;;;3.25;;
18176;SDS011;9213;50.858;3.964;2023-05-02T10:44:07;6.68;;;3.17;;
18176;SDS011;9213;50.858;3.964;2023-05-02T10:46:36;7.55;;;3.17;;
18176;SDS011;9213;50.858;3.964;2023-05-02T10:49:05;6.75;;;2.92;;
18176;SDS011;9213;50.858;3.964;2023-05-02T10:51:35;9.23;;;3.95;;
18176;SDS011;9213;50.858;3.964;2023-05-02T10:54:19;9.00;;;3.90;;
18176;SDS011;9213;50.858;3.964;2023-05-02T10:57:00;9.57;;;3.70;;
18176;SDS011;9213;50.858;3.964;2023-05-02T10:59:28;10.20;;;4.30;;
18176;SDS011;9213;50.858;3.964;2023-05-02T11:01:58;7.82;;;3.92;;
18176;SDS011;9213;50.858;3.964;2023-05-02T11:04:39;9.63;;;4.07;;
18176;SDS011;9213;50.858;3.964;2023-05-02T11:07:24;9.32;;;4.15;;
18176;SDS011;9213;50.858;3.964;2023-05-02T11:09:51;9.50;;;3.67;;
18176;SDS011;9213;50.858;3.964;2023-05-02T11:15:09;9.55;;;3.92;;
18176;SDS011;9213;50.858;3.964;2023-05-02T11:20:26;6.43;;;4.00;;
18176;SDS011;9213;50.858;3.964;2023-05-02T11:25:53;8.93;;;4.20;;
18176;SDS011;9213;50.858;3.964;2023-05-02T11:31:09;8.23;;;4.38;;
18176;SDS011;9213;50.858;3.964;2023-05-02T11:34:21;5.72;;;4.07;;
18176;SDS011;9213;50.858;3.964;2023-05-02T11:36:48;9.65;;;3.80;;
18176;SDS011;9213;50.858;3.964;2023-05-02T11:39:18;10.15;;;3.88;;
18176;SDS011;9213;50.858;3.964;2023-05-02T11:41:45;8.70;;;4.45;;
18176;SDS011;9213;50.858;3.964;2023-05-02T11:44:15;8.50;;;5.13;;
18176;SDS011;9213;50.858;3.964;2023-05-02T11:46:42;7.03;;;4.70;;
18176;SDS011;9213;50.858;3.964;2023-05-02T11:49:10;11.07;;;5.05;;
18176;SDS011;9213;50.858;3.964;2023-05-02T11:51:39;6.18;;;4.20;;
18176;SDS011;9213;50.858;3.964;2023-05-02T11:54:06;8.73;;;4.45;;
18176;SDS011;9213;50.858;3.964;2023-05-02T11:56:34;9.45;;;4.18;;
18176;SDS011;9213;50.858;3.964;2023-05-02T11:59:01;11.65;;;5.10;;
18176;SDS011;9213;50.858;3.964;2023-05-02T12:01:29;5.82;;;4.47;;
18176;SDS011;9213;50.858;3.964;2023-05-02T12:04:02;8.57;;;4.70;;
18176;SDS011;9213;50.858;3.964;2023-05-02T12:06:29;6.13;;;4.28;;
18176;SDS011;9213;50.858;3.964;2023-05-02T12:09:07;6.97;;;4.25;;
18176;SDS011;9213;50.858;3.964;2023-05-02T12:11:35;10.63;;;4.55;;
18176;SDS011;9213;50.858;3.964;2023-05-02T12:14:03;8.25;;;4.53;;
18176;SDS011;9213;50.858;3.964;2023-05-02T12:16:30;7.25;;;4.32;;
18176;SDS011;9213;50.858;3.964;2023-05-02T12:18:58;7.88;;;5.00;;
18176;SDS011;9213;50.858;3.964;2023-05-02T12:21:25;7.55;;;5.55;;
18176;SDS011;9213;50.858;3.964;2023-05-02T12:23:57;8.15;;;5.80;;
18176;SDS011;9213;50.858;3.964;2023-05-02T12:26:25;6.25;;;4.47;;
18176;SDS011;9213;50.858;3.964;2023-05-02T12:28:54;6.50;;;3.88;;
18176;SDS011;9213;50.858;3.964;2023-05-02T12:31:22;5.15;;;4.05;;
18176;SDS011;9213;50.858;3.964;2023-05-02T12:33:52;5.28;;;4.00;;
18176;SDS011;9213;50.858;3.964;2023-05-02T12:36:21;4.05;;;3.63;;
18176;SDS011;9213;50.858;3.964;2023-05-02T12:38:49;7.80;;;4.15;;
18176;SDS011;9213;50.858;3.964;2023-05-02T12:41:17;7.65;;;4.30;;
18176;SDS011;9213;50.858;3.964;2023-05-02T12:43:46;5.43;;;3.55;;
18176;SDS011;9213;50.858;3.964;2023-05-02T12:46:15;6.13;;;4.20;;
18176;SDS011;9213;50.858;3.964;2023-05-02T12:48:42;8.13;;;4.53;;
18176;SDS011;9213;50.858;3.964;2023-05-02T12:51:19;6.28;;;4.25;;
18176;SDS011;9213;50.858;3.964;2023-05-02T12:53:47;5.25;;;3.83;;
18176;SDS011;9213;50.858;3.964;2023-05-02T12:56:14;7.20;;;4.00;;
18176;SDS011;9213;50.858;3.964;2023-05-02T12:58:42;5.97;;;4.38;;
18176;SDS011;9213;50.858;3.964;2023-05-02T13:01:11;6.65;;;4.47;;
18176;SDS011;9213;50.858;3.964;2023-05-02T13:03:38;8.30;;;5.13;;
18176;SDS011;9213;50.858;3.964;2023-05-02T13:06:07;6.40;;;4.70;;
18176;SDS011;9213;50.858;3.964;2023-05-02T13:08:35;7.15;;;4.18;;
18176;SDS011;9213;50.858;3.964;2023-05-02T13:11:02;6.15;;;4.53;;
18176;SDS011;9213;50.858;3.964;2023-05-02T13:13:29;6.40;;;4.18;;
18176;SDS011;9213;50.858;3.964;2023-05-02T13:15:59;9.80;;;5.03;;
18176;SDS011;9213;50.858;3.964;2023-05-02T13:18:27;8.18;;;4.63;;
18176;SDS011;9213;50.858;3.964;2023-05-02T13:20:54;10.27;;;4.90;;
18176;SDS011;9213;50.858;3.964;2023-05-02T13:23:21;5.30;;;4.50;;
18176;SDS011;9213;50.858;3.964;2023-05-02T13:25:48;7.28;;;4.22;;
18176;SDS011;9213;50.858;3.964;2023-05-02T13:28:15;7.78;;;4.03;;
18176;SDS011;9213;50.858;3.964;2023-05-02T13:30:41;8.23;;;4.53;;
18176;SDS011;9213;50.858;3.964;2023-05-02T13:33:08;6.90;;;4.43;;
18176;SDS011;9213;50.858;3.964;2023-05-02T13:35:37;6.80;;;3.95;;
18176;SDS011;9213;50.858;3.964;2023-05-02T13:38:03;8.73;;;4.18;;
18176;SDS011;9213;50.858;3.964;2023-05-02T13:40:30;8.77;;;4.65;;
18176;SDS011;9213;50.858;3.964;2023-05-02T13:42:57;7.75;;;4.47;;
18176;SDS011;9213;50.858;3.964;2023-05-02T13:45:24;5.60;;;4.45;;
18176;SDS011;9213;50.858;3.964;2023-05-02T13:47:51;11.70;;;5.47;;
18176;SDS011;9213;50.858;3.964;2023-05-02T13:50:18;5.00;;;4.50;;
18176;SDS011;9213;50.858;3.964;2023-05-02T13:52:46;7.53;;;5.05;;
18176;SDS011;9213;50.858;3.964;2023-05-02T13:55:13;8.80;;;4.72;;
18176;SDS011;9213;50.858;3.964;2023-05-02T13:57:40;8.88;;;4.70;;
18176;SDS011;9213;50.858;3.964;2023-05-02T14:00:08;8.13;;;4.68;;
18176;SDS011;9213;50.858;3.964;2023-05-02T14:02:36;7.53;;;4.80;;
18176;SDS011;9213;50.858;3.964;2023-05-02T14:05:03;6.38;;;4.45;;
18176;SDS011;9213;50.858;3.964;2023-05-02T14:07:31;5.70;;;3.90;;
18176;SDS011;9213;50.858;3.964;2023-05-02T14:09:59;7.28;;;3.88;;
18176;SDS011;9213;50.858;3.964;2023-05-02T14:12:26;4.97;;;3.92;;
18176;SDS011;9213;50.858;3.964;2023-05-02T14:14:53;5.38;;;3.90;;
18176;SDS011;9213;50.858;3.964;2023-05-02T14:17:20;7.50;;;3.63;;
18176;SDS011;9213;50.858;3.964;2023-05-02T14:19:49;5.55;;;3.38;;
18176;SDS011;9213;50.858;3.964;2023-05-02T14:22:16;5.25;;;2.72;;
18176;SDS011;9213;50.858;3.964;2023-05-02T14:24:42;4.90;;;2.90;;
18176;SDS011;9213;50.858;3.964;2023-05-02T14:27:11;5.50;;;2.60;;
18176;SDS011;9213;50.858;3.964;2023-05-02T14:29:42;3.58;;;2.78;;
18176;SDS011;9213;50.858;3.964;2023-05-02T14:32:10;2.38;;;2.03;;
18176;SDS011;9213;50.858;3.964;2023-05-02T14:34:37;9.45;;;2.60;;
18176;SDS011;9213;50.858;3.964;2023-05-02T14:37:04;3.40;;;2.90;;
18176;SDS011;9213;50.858;3.964;2023-05-02T14:39:31;5.50;;;2.92;;
18176;SDS011;9213;50.858;3.964;2023-05-02T14:41:57;6.00;;;3.30;;
18176;SDS011;9213;50.858;3.964;2023-05-02T14:44:28;5.15;;;2.50;;
18176;SDS011;9213;50.858;3.964;2023-05-02T14:46:55;4.25;;;3.08;;
18176;SDS011;9213;50.858;3.964;2023-05-02T14:49:22;3.65;;;2.65;;
18176;SDS011;9213;50.858;3.964;2023-05-02T14:51:49;5.25;;;3.00;;
18176;SDS011;9213;50.858;3.964;2023-05-02T14:54:16;6.18;;;3.15;;
18176;SDS011;9213;50.858;3.964;2023-05-02T14:56:44;3.90;;;2.70;;
18176;SDS011;9213;50.858;3.964;2023-05-02T14:59:11;3.60;;;2.40;;
18176;SDS011;9213;50.858;3.964;2023-05-02T15:01:39;5.70;;;3.13;;
18176;SDS011;9213;50.858;3.964;2023-05-02T15:07:41;5.40;;;2.45;;
18176;SDS011;9213;50.858;3.964;2023-05-02T15:10:08;4.40;;;2.50;;
18176;SDS011;9213;50.858;3.964;2023-05-02T15:12:35;4.35;;;2.85;;